sensor_id;sensor_type;location;lat;lon;timestamp;pressure;altitude;pressure_sealevel;temperature;humidity
36798;BME280;22748;8.426;99.512;2023-02-12T00:01:47;100790.72;;;28.26;57.71
36798;BME280;22748;8.426;99.512;2023-02-12T00:04:17;100786.78;;;28.22;57.78
36798;BME280;22748;8.426;99.512;2023-02-12T00:06:48;100803.31;;;28.19;57.79
36798;BME280;22748;8.426;99.512;2023-02-12T00:09:18;100804.31;;;28.18;58.21
36798;BME280;22748;8.426;99.512;2023-02-12T00:11:48;100807.22;;;28.16;58.52
36798;BME280;22748;8.426;99.512;2023-02-12T00:14:18;100811.78;;;28.16;58.46
36798;BME280;22748;8.426;99.512;2023-02-12T00:16:49;100806.59;;;28.14;58.51
36798;BME280;22748;8.426;99.512;2023-02-12T00:19:19;100817.53;;;28.13;58.31
36798;BME280;22748;8.426;99.512;2023-02-12T00:21:51;100815.88;;;28.12;58.29
36798;BME280;22748;8.426;99.512;2023-02-12T00:24:20;100822.25;;;28.10;58.29
36798;BME280;22748;8.426;99.512;2023-02-12T00:26:51;100824.53;;;28.07;58.80
36798;BME280;22748;8.426;99.512;2023-02-12T00:29:22;100823.69;;;28.06;58.57
36798;BME280;22748;8.426;99.512;2023-02-12T00:31:52;100828.41;;;28.04;58.76
36798;BME280;22748;8.426;99.512;2023-02-12T00:34:23;100835.84;;;28.02;59.09
36798;BME280;22748;8.426;99.512;2023-02-12T00:36:55;100842.25;;;28.01;59.26
36798;BME280;22748;8.426;99.512;2023-02-12T00:39:26;100838.53;;;28.02;59.06
36798;BME280;22748;8.426;99.512;2023-02-12T00:41:56;100852.53;;;27.98;59.17
36798;BME280;22748;8.426;99.512;2023-02-12T00:44:26;100855.81;;;27.93;59.46
36798;BME280;22748;8.426;99.512;2023-02-12T00:46:57;100858.91;;;27.90;59.99
36798;BME280;22748;8.426;99.512;2023-02-12T00:49:30;100862.41;;;27.90;59.88
36798;BME280;22748;8.426;99.512;2023-02-12T00:52:03;100863.84;;;27.86;60.37
36798;BME280;22748;8.426;99.512;2023-02-12T00:54:34;100868.03;;;27.74;60.54
36798;BME280;22748;8.426;99.512;2023-02-12T00:57:03;100873.03;;;27.77;60.46
36798;BME280;22748;8.426;99.512;2023-02-12T00:59:34;100884.59;;;27.78;60.65
36798;BME280;22748;8.426;99.512;2023-02-12T01:02:08;100878.94;;;27.87;60.60
36798;BME280;22748;8.426;99.512;2023-02-12T01:04:38;100879.78;;;27.95;60.61
36798;BME280;22748;8.426;99.512;2023-02-12T01:07:10;100884.75;;;27.98;60.48
36798;BME280;22748;8.426;99.512;2023-02-12T01:09:43;100881.88;;;27.99;60.72
36798;BME280;22748;8.426;99.512;2023-02-12T01:12:13;100886.22;;;28.00;61.21
36798;BME280;22748;8.426;99.512;2023-02-12T01:14:44;100886.84;;;28.02;60.97
36798;BME280;22748;8.426;99.512;2023-02-12T01:17:13;100896.38;;;28.05;61.21
36798;BME280;22748;8.426;99.512;2023-02-12T01:19:42;100891.84;;;28.05;61.20
36798;BME280;22748;8.426;99.512;2023-02-12T01:22:14;100900.13;;;28.10;61.45
36798;BME280;22748;8.426;99.512;2023-02-12T01:24:44;100901.78;;;28.12;61.49
36798;BME280;22748;8.426;99.512;2023-02-12T01:27:13;100904.06;;;28.15;61.69
36798;BME280;22748;8.426;99.512;2023-02-12T01:29:43;100913.41;;;28.19;61.12
36798;BME280;22748;8.426;99.512;2023-02-12T01:32:14;100910.94;;;28.24;61.36
36798;BME280;22748;8.426;99.512;2023-02-12T01:34:43;100914.25;;;28.26;61.48
36798;BME280;22748;8.426;99.512;2023-02-12T01:37:14;100924.63;;;28.29;61.23
36798;BME280;22748;8.426;99.512;2023-02-12T01:39:46;100924.22;;;28.32;61.48
36798;BME280;22748;8.426;99.512;2023-02-12T01:42:16;100922.16;;;28.34;61.35
36798;BME280;22748;8.426;99.512;2023-02-12T01:47:50;100929.63;;;28.39;61.32
36798;BME280;22748;8.426;99.512;2023-02-12T01:50:20;100936.25;;;28.43;61.09
36798;BME280;22748;8.426;99.512;2023-02-12T01:52:58;100939.56;;;28.45;61.17
36798;BME280;22748;8.426;99.512;2023-02-12T01:55:29;100934.69;;;28.48;61.40
36798;BME280;22748;8.426;99.512;2023-02-12T01:57:59;100945.00;;;28.51;61.27
36798;BME280;22748;8.426;99.512;2023-02-12T02:00:29;100953.72;;;28.54;60.73
36798;BME280;22748;8.426;99.512;2023-02-12T02:03:02;100943.41;;;28.57;60.64
36798;BME280;22748;8.426;99.512;2023-02-12T02:05:45;100949.59;;;28.58;60.88
36798;BME280;22748;8.426;99.512;2023-02-12T02:08:18;100955.38;;;28.61;60.78
36798;BME280;22748;8.426;99.512;2023-02-12T02:10:55;100956.66;;;28.65;60.77
36798;BME280;22748;8.426;99.512;2023-02-12T02:13:27;100967.84;;;28.69;60.83
36798;BME280;22748;8.426;99.512;2023-02-12T02:16:20;100962.88;;;28.66;60.71
36798;BME280;22748;8.426;99.512;2023-02-12T02:18:57;100960.81;;;28.68;60.52
36798;BME280;22748;8.426;99.512;2023-02-12T02:21:50;100964.09;;;28.70;60.66
36798;BME280;22748;8.426;99.512;2023-02-12T02:24:46;100959.59;;;28.77;60.98
36798;BME280;22748;8.426;99.512;2023-02-12T02:27:29;100967.28;;;28.87;60.25
36798;BME280;22748;8.426;99.512;2023-02-12T02:33:20;100966.69;;;28.91;60.60
36798;BME280;22748;8.426;99.512;2023-02-12T02:35:59;100965.03;;;28.90;60.51
36798;BME280;22748;8.426;99.512;2023-02-12T02:38:40;100970.41;;;28.90;60.47
36798;BME280;22748;8.426;99.512;2023-02-12T02:41:29;100970.41;;;28.90;60.51
36798;BME280;22748;8.426;99.512;2023-02-12T02:44:06;100977.25;;;29.00;60.57
36798;BME280;22748;8.426;99.512;2023-02-12T02:46:42;100975.84;;;29.04;60.21
36798;BME280;22748;8.426;99.512;2023-02-12T02:49:22;100973.78;;;29.06;59.98
36798;BME280;22748;8.426;99.512;2023-02-12T02:51:58;100973.81;;;29.12;60.12
36798;BME280;22748;8.426;99.512;2023-02-12T02:54:32;100975.91;;;29.17;59.83
36798;BME280;22748;8.426;99.512;2023-02-12T02:57:10;100974.03;;;29.18;59.27
36798;BME280;22748;8.426;99.512;2023-02-12T02:59:43;100975.91;;;29.17;59.21
36798;BME280;22748;8.426;99.512;2023-02-12T03:02:19;100977.16;;;29.21;59.21
36798;BME280;22748;8.426;99.512;2023-02-12T03:04:58;100974.06;;;29.24;59.41
36798;BME280;22748;8.426;99.512;2023-02-12T03:07:37;100969.72;;;29.30;58.65
36798;BME280;22748;8.426;99.512;2023-02-12T03:10:12;100954.84;;;29.27;58.60
36798;BME280;22748;8.426;99.512;2023-02-12T03:12:58;100963.53;;;29.29;58.39
36798;BME280;22748;8.426;99.512;2023-02-12T03:15:55;100962.31;;;29.39;58.35
36798;BME280;22748;8.426;99.512;2023-02-12T03:18:30;100958.59;;;29.46;57.74
36798;BME280;22748;8.426;99.512;2023-02-12T03:21:07;100951.75;;;29.50;57.83
36798;BME280;22748;8.426;99.512;2023-02-12T03:23:41;100949.06;;;29.57;57.43
36798;BME280;22748;8.426;99.512;2023-02-12T03:26:18;100950.53;;;29.60;57.60
36798;BME280;22748;8.426;99.512;2023-02-12T03:28:57;100948.25;;;29.63;57.12
36798;BME280;22748;8.426;99.512;2023-02-12T03:31:28;100946.41;;;29.64;57.12
36798;BME280;22748;8.426;99.512;2023-02-12T03:34:08;100945.78;;;29.55;56.71
36798;BME280;22748;8.426;99.512;2023-02-12T03:36:47;100947.41;;;29.63;57.34
36798;BME280;22748;8.426;99.512;2023-02-12T03:39:27;100945.16;;;29.66;57.23
36798;BME280;22748;8.426;99.512;2023-02-12T03:42:04;100947.06;;;29.72;57.09
36798;BME280;22748;8.426;99.512;2023-02-12T03:44:50;100935.44;;;29.79;56.27
36798;BME280;22748;8.426;99.512;2023-02-12T03:47:35;100934.81;;;29.83;56.71
36798;BME280;22748;8.426;99.512;2023-02-12T03:50:18;100928.81;;;29.88;56.52
36798;BME280;22748;8.426;99.512;2023-02-12T03:52:56;100924.66;;;29.92;55.87
36798;BME280;22748;8.426;99.512;2023-02-12T03:55:30;100917.59;;;29.98;55.48
36798;BME280;22748;8.426;99.512;2023-02-12T03:58:07;100916.38;;;29.93;55.44
36798;BME280;22748;8.426;99.512;2023-02-12T04:00:41;100908.91;;;30.02;55.46
36798;BME280;22748;8.426;99.512;2023-02-12T04:03:13;100908.06;;;30.08;55.49
36798;BME280;22748;8.426;99.512;2023-02-12T04:05:43;100903.09;;;30.12;55.24
36798;BME280;22748;8.426;99.512;2023-02-12T04:08:18;100901.84;;;30.14;54.84
36798;BME280;22748;8.426;99.512;2023-02-12T04:11:01;100900.38;;;30.19;54.85
36798;BME280;22748;8.426;99.512;2023-02-12T04:13:44;100898.69;;;30.24;54.50
36798;BME280;22748;8.426;99.512;2023-02-12T04:16:31;100893.75;;;30.28;54.52
36798;BME280;22748;8.426;99.512;2023-02-12T04:19:02;100885.63;;;30.34;54.74
36798;BME280;22748;8.426;99.512;2023-02-12T04:21:47;100883.56;;;30.37;54.32
36798;BME280;22748;8.426;99.512;2023-02-12T04:24:29;100875.28;;;30.38;53.88
36798;BME280;22748;8.426;99.512;2023-02-12T04:27:08;100868.22;;;30.37;53.35
36798;BME280;22748;8.426;99.512;2023-02-12T04:29:44;100861.56;;;30.40;52.52
36798;BME280;22748;8.426;99.512;2023-02-12T04:32:19;100860.34;;;30.42;52.65
36798;BME280;22748;8.426;99.512;2023-02-12T04:34:57;100850.56;;;30.48;52.39
36798;BME280;22748;8.426;99.512;2023-02-12T04:37:35;100844.75;;;30.51;52.04
36798;BME280;22748;8.426;99.512;2023-02-12T04:40:12;100845.56;;;30.51;51.83
36798;BME280;22748;8.426;99.512;2023-02-12T04:42:44;100840.78;;;30.53;51.74
36798;BME280;22748;8.426;99.512;2023-02-12T04:45:23;100838.09;;;30.53;52.26
36798;BME280;22748;8.426;99.512;2023-02-12T04:47:54;100834.75;;;30.58;52.53
36798;BME280;22748;8.426;99.512;2023-02-12T04:50:23;100835.31;;;30.67;52.44
36798;BME280;22748;8.426;99.512;2023-02-12T04:52:54;100836.09;;;30.74;52.12
36798;BME280;22748;8.426;99.512;2023-02-12T04:55:25;100831.94;;;30.78;52.41
36798;BME280;22748;8.426;99.512;2023-02-12T04:57:55;100826.50;;;30.85;52.29
36798;BME280;22748;8.426;99.512;2023-02-12T05:00:25;100822.75;;;30.92;52.08
36798;BME280;22748;8.426;99.512;2023-02-12T05:02:54;100806.94;;;30.96;51.54
36798;BME280;22748;8.426;99.512;2023-02-12T05:05:25;100808.38;;;30.99;51.40
36798;BME280;22748;8.426;99.512;2023-02-12T05:07:59;100800.69;;;31.02;50.84
36798;BME280;22748;8.426;99.512;2023-02-12T05:10:29;100795.50;;;31.01;50.79
36798;BME280;22748;8.426;99.512;2023-02-12T05:13:05;100799.19;;;31.06;50.75
36798;BME280;22748;8.426;99.512;2023-02-12T05:15:37;100794.81;;;31.12;49.85
36798;BME280;22748;8.426;99.512;2023-02-12T05:18:08;100790.16;;;31.19;49.88
36798;BME280;22748;8.426;99.512;2023-02-12T05:20:37;100794.06;;;31.23;49.21
36798;BME280;22748;8.426;99.512;2023-02-12T05:23:07;100790.78;;;31.21;49.06
36798;BME280;22748;8.426;99.512;2023-02-12T05:25:39;100785.59;;;31.20;49.61
36798;BME280;22748;8.426;99.512;2023-02-12T05:28:10;100786.66;;;31.19;49.54
36798;BME280;22748;8.426;99.512;2023-02-12T05:30:41;100776.06;;;31.17;49.66
36798;BME280;22748;8.426;99.512;2023-02-12T05:33:11;100772.56;;;31.16;49.47
36798;BME280;22748;8.426;99.512;2023-02-12T05:35:42;100764.81;;;31.20;49.82
36798;BME280;22748;8.426;99.512;2023-02-12T05:38:13;100762.06;;;31.27;49.96
36798;BME280;22748;8.426;99.512;2023-02-12T05:40:45;100751.88;;;31.29;50.09
36798;BME280;22748;8.426;99.512;2023-02-12T05:43:15;100741.94;;;31.29;50.39
36798;BME280;22748;8.426;99.512;2023-02-12T05:45:56;100745.22;;;31.31;50.07
36798;BME280;22748;8.426;99.512;2023-02-12T05:48:27;100741.00;;;31.35;49.57
36798;BME280;22748;8.426;99.512;2023-02-12T05:51:02;100736.22;;;31.37;50.01
36798;BME280;22748;8.426;99.512;2023-02-12T05:53:32;100728.94;;;31.45;49.76
36798;BME280;22748;8.426;99.512;2023-02-12T05:56:14;100731.38;;;31.46;49.91
36798;BME280;22748;8.426;99.512;2023-02-12T05:58:49;100723.47;;;31.51;50.31
36798;BME280;22748;8.426;99.512;2023-02-12T06:01:23;100716.91;;;31.59;50.43
36798;BME280;22748;8.426;99.512;2023-02-12T06:03:54;100714.81;;;31.61;49.86
36798;BME280;22748;8.426;99.512;2023-02-12T06:06:28;100712.50;;;31.65;49.98
36798;BME280;22748;8.426;99.512;2023-02-12T06:08:59;100710.63;;;31.65;49.66
36798;BME280;22748;8.426;99.512;2023-02-12T06:11:30;100707.03;;;31.71;49.51
36798;BME280;22748;8.426;99.512;2023-02-12T06:14:02;100703.66;;;31.76;49.39
36798;BME280;22748;8.426;99.512;2023-02-12T06:16:33;100706.47;;;31.81;49.15
36798;BME280;22748;8.426;99.512;2023-02-12T06:19:05;100698.16;;;31.83;49.21
36798;BME280;22748;8.426;99.512;2023-02-12T06:21:35;100696.53;;;31.82;49.49
36798;BME280;22748;8.426;99.512;2023-02-12T06:24:08;100699.22;;;31.82;49.23
36798;BME280;22748;8.426;99.512;2023-02-12T06:26:41;100690.66;;;31.85;49.07
36798;BME280;22748;8.426;99.512;2023-02-12T06:29:12;100677.88;;;31.92;48.88
36798;BME280;22748;8.426;99.512;2023-02-12T06:31:42;100674.91;;;32.00;48.90
36798;BME280;22748;8.426;99.512;2023-02-12T06:34:12;100671.72;;;32.03;49.02
36798;BME280;22748;8.426;99.512;2023-02-12T06:36:43;100661.38;;;32.00;49.15
36798;BME280;22748;8.426;99.512;2023-02-12T06:39:20;100654.34;;;31.99;49.12
36798;BME280;22748;8.426;99.512;2023-02-12T06:41:57;100658.09;;;31.98;48.93
36798;BME280;22748;8.426;99.512;2023-02-12T06:44:27;100653.41;;;32.05;48.99
36798;BME280;22748;8.426;99.512;2023-02-12T06:47:02;100643.34;;;32.12;48.71
36798;BME280;22748;8.426;99.512;2023-02-12T06:49:35;100642.88;;;32.15;49.25
36798;BME280;22748;8.426;99.512;2023-02-12T06:52:11;100639.13;;;32.16;49.06
36798;BME280;22748;8.426;99.512;2023-02-12T06:54:47;100626.44;;;32.17;49.10
36798;BME280;22748;8.426;99.512;2023-02-12T06:57:19;100624.06;;;32.21;48.83
36798;BME280;22748;8.426;99.512;2023-02-12T06:59:49;100620.13;;;32.23;48.84
36798;BME280;22748;8.426;99.512;2023-02-12T07:02:19;100611.75;;;32.25;48.56
36798;BME280;22748;8.426;99.512;2023-02-12T07:04:51;100610.84;;;32.31;48.33
36798;BME280;22748;8.426;99.512;2023-02-12T07:07:21;100609.06;;;32.25;47.63
36798;BME280;22748;8.426;99.512;2023-02-12T07:09:55;100602.59;;;32.26;47.86
36798;BME280;22748;8.426;99.512;2023-02-12T07:12:32;100595.69;;;32.30;47.54
36798;BME280;22748;8.426;99.512;2023-02-12T07:15:05;100598.50;;;32.35;47.12
36798;BME280;22748;8.426;99.512;2023-02-12T07:17:43;100586.66;;;32.36;47.40
36798;BME280;22748;8.426;99.512;2023-02-12T07:20:15;100590.16;;;32.36;47.72
36798;BME280;22748;8.426;99.512;2023-02-12T07:22:57;100589.34;;;32.36;47.98
36798;BME280;22748;8.426;99.512;2023-02-12T07:25:29;100579.25;;;32.43;47.83
36798;BME280;22748;8.426;99.512;2023-02-12T07:28:00;100576.41;;;32.38;47.48
36798;BME280;22748;8.426;99.512;2023-02-12T07:30:30;100573.38;;;32.34;48.03
36798;BME280;22748;8.426;99.512;2023-02-12T07:33:00;100567.13;;;32.34;47.81
36798;BME280;22748;8.426;99.512;2023-02-12T07:35:31;100564.78;;;32.37;47.81
36798;BME280;22748;8.426;99.512;2023-02-12T07:38:02;100565.50;;;32.45;47.93
36798;BME280;22748;8.426;99.512;2023-02-12T07:40:31;100560.91;;;32.45;47.72
36798;BME280;22748;8.426;99.512;2023-02-12T07:43:15;100557.03;;;32.53;47.51
36798;BME280;22748;8.426;99.512;2023-02-12T07:45:49;100550.94;;;32.57;47.44
36798;BME280;22748;8.426;99.512;2023-02-12T07:48:18;100546.69;;;32.62;47.23
36798;BME280;22748;8.426;99.512;2023-02-12T07:50:47;100550.56;;;32.66;46.80
36798;BME280;22748;8.426;99.512;2023-02-12T07:53:17;100538.47;;;32.68;46.81
36798;BME280;22748;8.426;99.512;2023-02-12T07:55:56;100534.00;;;32.74;47.22
36798;BME280;22748;8.426;99.512;2023-02-12T07:58:40;100534.09;;;32.79;46.89
36798;BME280;22748;8.426;99.512;2023-02-12T08:01:12;100533.63;;;32.82;46.78
36798;BME280;22748;8.426;99.512;2023-02-12T08:03:46;100526.56;;;32.81;47.11
36798;BME280;22748;8.426;99.512;2023-02-12T08:06:18;100530.66;;;32.84;47.05
36798;BME280;22748;8.426;99.512;2023-02-12T08:08:52;100523.88;;;32.81;46.93
36798;BME280;22748;8.426;99.512;2023-02-12T08:11:26;100527.06;;;32.78;47.13
36798;BME280;22748;8.426;99.512;2023-02-12T08:14:01;100520.84;;;32.77;47.19
36798;BME280;22748;8.426;99.512;2023-02-12T08:16:38;100520.84;;;32.77;47.16
36798;BME280;22748;8.426;99.512;2023-02-12T08:19:12;100519.53;;;32.80;47.48
36798;BME280;22748;8.426;99.512;2023-02-12T08:21:42;100519.97;;;32.77;47.53
36798;BME280;22748;8.426;99.512;2023-02-12T08:24:13;100515.66;;;32.76;47.81
36798;BME280;22748;8.426;99.512;2023-02-12T08:26:43;100519.31;;;32.70;47.37
36798;BME280;22748;8.426;99.512;2023-02-12T08:29:19;100508.47;;;32.70;48.03
36798;BME280;22748;8.426;99.512;2023-02-12T08:31:53;100508.47;;;32.70;47.77
36798;BME280;22748;8.426;99.512;2023-02-12T08:34:26;100504.75;;;32.71;48.10
36798;BME280;22748;8.426;99.512;2023-02-12T08:37:03;100508.00;;;32.73;47.31
36798;BME280;22748;8.426;99.512;2023-02-12T08:39:34;100504.75;;;32.71;46.85
36798;BME280;22748;8.426;99.512;2023-02-12T08:42:07;100505.41;;;32.78;47.21
36798;BME280;22748;8.426;99.512;2023-02-12T08:44:42;100503.88;;;32.82;47.29
36798;BME280;22748;8.426;99.512;2023-02-12T08:47:16;100507.19;;;32.84;47.49
36798;BME280;22748;8.426;99.512;2023-02-12T08:49:46;100514.81;;;32.87;48.35
36798;BME280;22748;8.426;99.512;2023-02-12T08:52:16;100509.38;;;32.87;47.89
36798;BME280;22748;8.426;99.512;2023-02-12T08:54:47;100508.91;;;32.90;47.42
36798;BME280;22748;8.426;99.512;2023-02-12T08:57:18;100509.38;;;32.87;47.34
36798;BME280;22748;8.426;99.512;2023-02-12T08:59:50;100507.28;;;32.89;47.04
36798;BME280;22748;8.426;99.512;2023-02-12T09:02:20;100509.03;;;32.95;46.38
36798;BME280;22748;8.426;99.512;2023-02-12T09:04:50;100521.00;;;32.99;47.14
36798;BME280;22748;8.426;99.512;2023-02-12T09:07:20;100523.00;;;33.04;47.18
36798;BME280;22748;8.426;99.512;2023-02-12T09:09:50;100519.03;;;32.95;47.62
36798;BME280;22748;8.426;99.512;2023-02-12T09:12:22;100528.06;;;33.00;47.42
36798;BME280;22748;8.426;99.512;2023-02-12T09:14:54;100523.22;;;33.03;47.84
36798;BME280;22748;8.426;99.512;2023-02-12T09:17:24;100521.34;;;33.03;48.15
36798;BME280;22748;8.426;99.512;2023-02-12T09:19:54;100519.00;;;33.07;47.97
36798;BME280;22748;8.426;99.512;2023-02-12T09:22:25;100522.88;;;33.11;47.92
36798;BME280;22748;8.426;99.512;2023-02-12T09:24:56;100520.53;;;33.14;47.93
36798;BME280;22748;8.426;99.512;2023-02-12T09:27:28;100519.22;;;33.17;47.96
36798;BME280;22748;8.426;99.512;2023-02-12T09:30:00;100518.97;;;33.18;48.02
36798;BME280;22748;8.426;99.512;2023-02-12T09:32:31;100524.13;;;33.20;48.27
36798;BME280;22748;8.426;99.512;2023-02-12T09:35:01;100525.09;;;33.14;48.35
36798;BME280;22748;8.426;99.512;2023-02-12T09:37:32;100525.69;;;33.16;48.43
36798;BME280;22748;8.426;99.512;2023-02-12T09:40:03;100517.09;;;33.19;47.87
36798;BME280;22748;8.426;99.512;2023-02-12T09:42:49;100517.91;;;33.19;47.81
36798;BME280;22748;8.426;99.512;2023-02-12T09:45:26;100521.19;;;33.22;47.79
36798;BME280;22748;8.426;99.512;2023-02-12T09:48:05;100514.72;;;33.23;48.19
36798;BME280;22748;8.426;99.512;2023-02-12T09:50:44;100518.25;;;33.23;48.02
36798;BME280;22748;8.426;99.512;2023-02-12T09:53:18;100529.09;;;33.23;47.89
36798;BME280;22748;8.426;99.512;2023-02-12T09:55:50;100516.59;;;33.22;48.25
36798;BME280;22748;8.426;99.512;2023-02-12T09:58:30;100519.53;;;33.20;48.32
36798;BME280;22748;8.426;99.512;2023-02-12T10:01:10;100520.84;;;33.18;48.26
36798;BME280;22748;8.426;99.512;2023-02-12T10:03:43;100523.56;;;33.18;48.34
36798;BME280;22748;8.426;99.512;2023-02-12T10:06:19;100522.75;;;33.17;47.72
36798;BME280;22748;8.426;99.512;2023-02-12T10:09:00;100520.25;;;33.16;47.98
36798;BME280;22748;8.426;99.512;2023-02-12T10:11:44;100520.84;;;33.18;48.16
36798;BME280;22748;8.426;99.512;2023-02-12T10:14:37;100534.16;;;33.19;48.04
36798;BME280;22748;8.426;99.512;2023-02-12T10:17:22;100532.25;;;33.20;48.15
36798;BME280;22748;8.426;99.512;2023-02-12T10:23:01;100539.66;;;33.25;48.30
36798;BME280;22748;8.426;99.512;2023-02-12T10:25:46;100533.41;;;33.24;48.38
36798;BME280;22748;8.426;99.512;2023-02-12T10:28:19;100542.03;;;33.21;48.12
36798;BME280;22748;8.426;99.512;2023-02-12T10:30:55;100538.47;;;33.20;48.07
36798;BME280;22748;8.426;99.512;2023-02-12T10:33:31;100540.16;;;33.22;48.19
36798;BME280;22748;8.426;99.512;2023-02-12T10:36:09;100546.38;;;33.22;48.25
36798;BME280;22748;8.426;99.512;2023-02-12T10:38:42;100542.63;;;33.23;48.72
36798;BME280;22748;8.426;99.512;2023-02-12T10:41:15;100545.31;;;33.23;49.42
36798;BME280;22748;8.426;99.512;2023-02-12T10:43:45;100544.75;;;33.21;49.17
36798;BME280;22748;8.426;99.512;2023-02-12T10:46:16;100548.50;;;33.20;49.17
36798;BME280;22748;8.426;99.512;2023-02-12T10:48:50;100548.72;;;33.18;48.75
36798;BME280;22748;8.426;99.512;2023-02-12T10:51:38;100553.31;;;33.18;48.75
36798;BME280;22748;8.426;99.512;2023-02-12T10:54:36;100552.75;;;33.16;48.69
36798;BME280;22748;8.426;99.512;2023-02-12T10:57:11;100554.97;;;33.19;48.64
36798;BME280;22748;8.426;99.512;2023-02-12T10:59:43;100562.50;;;33.17;48.68
36798;BME280;22748;8.426;99.512;2023-02-12T11:02:25;100562.97;;;33.14;49.09
36798;BME280;22748;8.426;99.512;2023-02-12T11:05:00;100566.75;;;33.13;49.17
36798;BME280;22748;8.426;99.512;2023-02-12T11:07:50;100569.47;;;33.13;49.09
36798;BME280;22748;8.426;99.512;2023-02-12T11:10:24;100567.81;;;33.12;49.12
36798;BME280;22748;8.426;99.512;2023-02-12T11:12:58;100574.75;;;33.08;49.23
36798;BME280;22748;8.426;99.512;2023-02-12T11:15:34;100577.72;;;33.06;48.93
36798;BME280;22748;8.426;99.512;2023-02-12T11:18:07;100574.75;;;33.08;49.19
36798;BME280;22748;8.426;99.512;2023-02-12T11:20:48;100569.34;;;33.08;49.38
36798;BME280;22748;8.426;99.512;2023-02-12T11:23:28;100571.00;;;33.09;49.39
36798;BME280;22748;8.426;99.512;2023-02-12T11:26:00;100579.34;;;33.07;49.39
36798;BME280;22748;8.426;99.512;2023-02-12T11:28:31;100581.25;;;33.07;49.47
36798;BME280;22748;8.426;99.512;2023-02-12T11:31:19;100579.81;;;33.04;49.06
36798;BME280;22748;8.426;99.512;2023-02-12T11:34:17;100584.88;;;33.00;49.51
36798;BME280;22748;8.426;99.512;2023-02-12T11:37:03;100587.56;;;33.00;49.35
36798;BME280;22748;8.426;99.512;2023-02-12T11:40:16;100596.19;;;32.97;49.77
36798;BME280;22748;8.426;99.512;2023-02-12T11:43:01;100597.13;;;32.91;49.56
36798;BME280;22748;8.426;99.512;2023-02-12T11:45:35;100603.84;;;32.89;49.49
36798;BME280;22748;8.426;99.512;2023-02-12T11:48:12;100605.47;;;32.90;49.23
36798;BME280;22748;8.426;99.512;2023-02-12T11:50:47;100612.75;;;32.89;49.11
36798;BME280;22748;8.426;99.512;2023-02-12T11:53:24;100612.66;;;32.84;49.24
36798;BME280;22748;8.426;99.512;2023-02-12T11:55:58;100619.69;;;32.85;49.06
36798;BME280;22748;8.426;99.512;2023-02-12T11:58:36;100622.63;;;32.84;49.07
36798;BME280;22748;8.426;99.512;2023-02-12T12:01:13;100626.41;;;32.83;49.15
36798;BME280;22748;8.426;99.512;2023-02-12T12:03:52;100622.31;;;32.80;49.49
36798;BME280;22748;8.426;99.512;2023-02-12T12:06:30;100630.41;;;32.80;49.10
36798;BME280;22748;8.426;99.512;2023-02-12T12:09:09;100633.56;;;32.77;48.87
36798;BME280;22748;8.426;99.512;2023-02-12T12:11:52;100629.94;;;32.71;48.80
36798;BME280;22748;8.426;99.512;2023-02-12T12:14:30;100636.66;;;32.69;48.48
36798;BME280;22748;8.426;99.512;2023-02-12T12:17:33;100642.72;;;32.64;48.88
36798;BME280;22748;8.426;99.512;2023-02-12T12:20:22;100647.91;;;32.66;48.67
36798;BME280;22748;8.426;99.512;2023-02-12T12:23:01;100649.59;;;32.67;48.70
36798;BME280;22748;8.426;99.512;2023-02-12T12:25:39;100663.91;;;32.67;48.79
36798;BME280;22748;8.426;99.512;2023-02-12T12:28:28;100667.66;;;32.66;49.06
36798;BME280;22748;8.426;99.512;2023-02-12T12:31:10;100665.81;;;32.67;49.17
36798;BME280;22748;8.426;99.512;2023-02-12T12:33:47;100678.25;;;32.68;48.97
36798;BME280;22748;8.426;99.512;2023-02-12T12:39:27;100692.84;;;32.67;49.05
36798;BME280;22748;8.426;99.512;2023-02-12T12:42:24;100696.00;;;32.64;48.85
36798;BME280;22748;8.426;99.512;2023-02-12T12:45:05;100695.41;;;32.62;48.98
36798;BME280;22748;8.426;99.512;2023-02-12T12:47:52;100705.41;;;32.61;49.12
36798;BME280;22748;8.426;99.512;2023-02-12T12:50:42;100714.81;;;32.58;49.14
36798;BME280;22748;8.426;99.512;2023-02-12T12:53:23;100721.03;;;32.59;49.15
36798;BME280;22748;8.426;99.512;2023-02-12T12:56:23;100731.25;;;32.57;48.99
36798;BME280;22748;8.426;99.512;2023-02-12T12:59:14;100729.84;;;32.54;48.98
36798;BME280;22748;8.426;99.512;2023-02-12T13:02:06;100729.25;;;32.52;48.88
36798;BME280;22748;8.426;99.512;2023-02-12T13:05:09;100731.31;;;32.50;49.19
36798;BME280;22748;8.426;99.512;2023-02-12T13:07:53;100743.22;;;32.49;49.17
36798;BME280;22748;8.426;99.512;2023-02-12T13:10:32;100742.63;;;32.47;49.51
36798;BME280;22748;8.426;99.512;2023-02-12T13:13:16;100748.84;;;32.48;49.50
36798;BME280;22748;8.426;99.512;2023-02-12T13:15:56;100742.63;;;32.47;49.87
36798;BME280;22748;8.426;99.512;2023-02-12T13:18:45;100748.03;;;32.47;50.25
36798;BME280;22748;8.426;99.512;2023-02-12T13:21:33;100748.03;;;32.47;50.39
36798;BME280;22748;8.426;99.512;2023-02-12T13:24:10;100744.25;;;32.48;50.04
36798;BME280;22748;8.426;99.512;2023-02-12T13:26:48;100748.03;;;32.47;50.10
36798;BME280;22748;8.426;99.512;2023-02-12T13:29:23;100754.47;;;32.46;50.00
36798;BME280;22748;8.426;99.512;2023-02-12T13:32:00;100747.66;;;32.44;50.13
36798;BME280;22748;8.426;99.512;2023-02-12T13:34:35;100756.56;;;32.44;50.34
36798;BME280;22748;8.426;99.512;2023-02-12T13:37:11;100769.50;;;32.42;50.04
36798;BME280;22748;8.426;99.512;2023-02-12T13:39:45;100768.47;;;32.43;50.28
36798;BME280;22748;8.426;99.512;2023-02-12T13:42:34;100780.31;;;32.42;50.23
36798;BME280;22748;8.426;99.512;2023-02-12T13:45:20;100776.78;;;32.42;50.27
36798;BME280;22748;8.426;99.512;2023-02-12T13:48:05;100784.69;;;32.43;50.18